sensor_id;sensor_type;location;lat;lon;timestamp;temperature;humidity
75738;DHT22;64356;45.638;13.764;2022-11-24T00:01:31;20.70;58.20
75738;DHT22;64356;45.638;13.764;2022-11-24T00:04:02;20.60;58.00
75738;DHT22;64356;45.638;13.764;2022-11-24T00:06:28;20.60;58.10
75738;DHT22;64356;45.638;13.764;2022-11-24T00:08:54;20.60;58.10
75738;DHT22;64356;45.638;13.764;2022-11-24T00:11:23;20.60;58.20
75738;DHT22;64356;45.638;13.764;2022-11-24T00:13:49;20.60;58.50
75738;DHT22;64356;45.638;13.764;2022-11-24T00:16:21;20.50;58.10
75738;DHT22;64356;45.638;13.764;2022-11-24T00:18:48;20.50;58.30
75738;DHT22;64356;45.638;13.764;2022-11-24T00:21:15;20.50;58.10
75738;DHT22;64356;45.638;13.764;2022-11-24T00:23:41;20.50;58.20
75738;DHT22;64356;45.638;13.764;2022-11-24T00:26:21;20.50;58.50
75738;DHT22;64356;45.638;13.764;2022-11-24T00:28:48;20.50;58.70
75738;DHT22;64356;45.638;13.764;2022-11-24T00:31:22;20.40;58.50
75738;DHT22;64356;45.638;13.764;2022-11-24T00:33:50;20.40;58.70
75738;DHT22;64356;45.638;13.764;2022-11-24T00:36:17;20.40;58.90
75738;DHT22;64356;45.638;13.764;2022-11-24T00:38:44;20.40;58.50
75738;DHT22;64356;45.638;13.764;2022-11-24T00:41:10;20.40;58.30
75738;DHT22;64356;45.638;13.764;2022-11-24T00:43:36;20.40;58.50
75738;DHT22;64356;45.638;13.764;2022-11-24T00:46:02;20.40;58.40
75738;DHT22;64356;45.638;13.764;2022-11-24T00:48:29;20.40;58.40
75738;DHT22;64356;45.638;13.764;2022-11-24T00:51:00;20.40;58.50
75738;DHT22;64356;45.638;13.764;2022-11-24T00:53:26;20.30;58.40
75738;DHT22;64356;45.638;13.764;2022-11-24T00:55:52;20.30;58.80
75738;DHT22;64356;45.638;13.764;2022-11-24T00:58:18;20.40;58.50
75738;DHT22;64356;45.638;13.764;2022-11-24T01:00:43;20.30;58.70
75738;DHT22;64356;45.638;13.764;2022-11-24T01:03:09;20.30;58.60
75738;DHT22;64356;45.638;13.764;2022-11-24T01:05:35;20.30;58.60
75738;DHT22;64356;45.638;13.764;2022-11-24T01:08:01;20.30;58.70
75738;DHT22;64356;45.638;13.764;2022-11-24T01:10:27;20.30;58.70
75738;DHT22;64356;45.638;13.764;2022-11-24T01:12:52;20.20;59.00
75738;DHT22;64356;45.638;13.764;2022-11-24T01:15:18;20.20;58.70
75738;DHT22;64356;45.638;13.764;2022-11-24T01:17:44;20.20;58.90
75738;DHT22;64356;45.638;13.764;2022-11-24T01:20:10;20.20;58.90
75738;DHT22;64356;45.638;13.764;2022-11-24T01:22:36;20.20;59.10
75738;DHT22;64356;45.638;13.764;2022-11-24T01:25:05;20.20;58.80
75738;DHT22;64356;45.638;13.764;2022-11-24T01:27:30;20.20;58.80
75738;DHT22;64356;45.638;13.764;2022-11-24T01:29:56;20.10;58.70
75738;DHT22;64356;45.638;13.764;2022-11-24T01:32:22;20.20;59.10
75738;DHT22;64356;45.638;13.764;2022-11-24T01:34:47;20.10;58.80
75738;DHT22;64356;45.638;13.764;2022-11-24T01:37:14;20.10;58.80
75738;DHT22;64356;45.638;13.764;2022-11-24T01:39:40;20.10;58.80
75738;DHT22;64356;45.638;13.764;2022-11-24T01:42:06;20.10;59.10
75738;DHT22;64356;45.638;13.764;2022-11-24T01:44:32;20.10;59.50
75738;DHT22;64356;45.638;13.764;2022-11-24T01:49:46;20.10;59.40
75738;DHT22;64356;45.638;13.764;2022-11-24T01:52:13;20.10;59.90
75738;DHT22;64356;45.638;13.764;2022-11-24T01:54:50;20.10;59.50
75738;DHT22;64356;45.638;13.764;2022-11-24T01:57:28;20.10;58.90
75738;DHT22;64356;45.638;13.764;2022-11-24T02:00:03;20.10;58.90
75738;DHT22;64356;45.638;13.764;2022-11-24T02:02:29;20.10;59.60
75738;DHT22;64356;45.638;13.764;2022-11-24T02:04:57;20.10;59.20
75738;DHT22;64356;45.638;13.764;2022-11-24T02:07:24;20.10;59.70
75738;DHT22;64356;45.638;13.764;2022-11-24T02:09:55;20.10;59.80
75738;DHT22;64356;45.638;13.764;2022-11-24T02:12:23;20.10;59.20
75738;DHT22;64356;45.638;13.764;2022-11-24T02:14:51;20.10;59.70
75738;DHT22;64356;45.638;13.764;2022-11-24T02:17:17;20.10;59.30
75738;DHT22;64356;45.638;13.764;2022-11-24T02:19:57;20.10;59.60
75738;DHT22;64356;45.638;13.764;2022-11-24T02:25:32;20.10;59.70
75738;DHT22;64356;45.638;13.764;2022-11-24T02:28:01;20.10;59.30
75738;DHT22;64356;45.638;13.764;2022-11-24T02:30:29;20.10;59.70
75738;DHT22;64356;45.638;13.764;2022-11-24T02:32:55;20.10;60.00
75738;DHT22;64356;45.638;13.764;2022-11-24T02:35:21;20.10;59.50
75738;DHT22;64356;45.638;13.764;2022-11-24T02:37:47;20.10;59.80
75738;DHT22;64356;45.638;13.764;2022-11-24T02:40:20;20.20;59.90
75738;DHT22;64356;45.638;13.764;2022-11-24T02:42:52;20.10;59.80
75738;DHT22;64356;45.638;13.764;2022-11-24T02:45:19;20.10;59.50
75738;DHT22;64356;45.638;13.764;2022-11-24T02:47:45;20.10;59.60
75738;DHT22;64356;45.638;13.764;2022-11-24T02:50:11;20.10;59.50
75738;DHT22;64356;45.638;13.764;2022-11-24T02:52:37;20.10;59.70
75738;DHT22;64356;45.638;13.764;2022-11-24T02:55:04;20.10;59.80
75738;DHT22;64356;45.638;13.764;2022-11-24T02:57:29;20.10;59.80
75738;DHT22;64356;45.638;13.764;2022-11-24T02:59:55;20.10;59.80
75738;DHT22;64356;45.638;13.764;2022-11-24T03:02:21;20.10;60.50
75738;DHT22;64356;45.638;13.764;2022-11-24T03:04:47;20.10;60.10
75738;DHT22;64356;45.638;13.764;2022-11-24T03:07:12;20.10;59.90
75738;DHT22;64356;45.638;13.764;2022-11-24T03:09:39;20.10;60.00
75738;DHT22;64356;45.638;13.764;2022-11-24T03:12:04;20.10;59.90
75738;DHT22;64356;45.638;13.764;2022-11-24T03:14:30;20.10;60.00
75738;DHT22;64356;45.638;13.764;2022-11-24T03:16:56;20.10;60.30
75738;DHT22;64356;45.638;13.764;2022-11-24T03:19:21;20.10;59.90
75738;DHT22;64356;45.638;13.764;2022-11-24T03:21:47;20.10;59.90
75738;DHT22;64356;45.638;13.764;2022-11-24T03:24:13;20.10;59.70
75738;DHT22;64356;45.638;13.764;2022-11-24T03:26:38;20.10;60.00
75738;DHT22;64356;45.638;13.764;2022-11-24T03:29:04;20.10;59.70
75738;DHT22;64356;45.638;13.764;2022-11-24T03:31:30;20.10;60.20
75738;DHT22;64356;45.638;13.764;2022-11-24T03:33:55;20.10;60.10
75738;DHT22;64356;45.638;13.764;2022-11-24T03:36:21;20.10;60.00
75738;DHT22;64356;45.638;13.764;2022-11-24T03:38:46;20.10;60.00
75738;DHT22;64356;45.638;13.764;2022-11-24T03:41:12;20.10;59.80
75738;DHT22;64356;45.638;13.764;2022-11-24T03:43:38;20.10;60.00
75738;DHT22;64356;45.638;13.764;2022-11-24T03:46:03;20.10;59.70
75738;DHT22;64356;45.638;13.764;2022-11-24T03:48:30;20.10;59.90
75738;DHT22;64356;45.638;13.764;2022-11-24T03:51:00;20.00;59.80
75738;DHT22;64356;45.638;13.764;2022-11-24T03:53:29;20.10;59.80
75738;DHT22;64356;45.638;13.764;2022-11-24T03:55:56;20.10;59.80
75738;DHT22;64356;45.638;13.764;2022-11-24T03:58:22;20.10;59.80
75738;DHT22;64356;45.638;13.764;2022-11-24T04:00:49;20.00;59.70
75738;DHT22;64356;45.638;13.764;2022-11-24T04:03:15;20.10;60.00
75738;DHT22;64356;45.638;13.764;2022-11-24T04:05:41;20.00;59.80
75738;DHT22;64356;45.638;13.764;2022-11-24T04:08:07;20.00;60.00
75738;DHT22;64356;45.638;13.764;2022-11-24T04:10:34;20.00;59.70
75738;DHT22;64356;45.638;13.764;2022-11-24T04:13:01;20.00;60.00
75738;DHT22;64356;45.638;13.764;2022-11-24T04:15:27;20.10;60.10
75738;DHT22;64356;45.638;13.764;2022-11-24T04:17:54;20.00;60.10
75738;DHT22;64356;45.638;13.764;2022-11-24T04:20:20;20.00;60.10
75738;DHT22;64356;45.638;13.764;2022-11-24T04:22:45;20.00;60.00
75738;DHT22;64356;45.638;13.764;2022-11-24T04:25:11;20.00;60.00
75738;DHT22;64356;45.638;13.764;2022-11-24T04:27:37;20.10;60.30
75738;DHT22;64356;45.638;13.764;2022-11-24T04:30:04;20.10;60.10
75738;DHT22;64356;45.638;13.764;2022-11-24T04:32:30;20.10;60.00
75738;DHT22;64356;45.638;13.764;2022-11-24T04:34:56;20.00;60.10
75738;DHT22;64356;45.638;13.764;2022-11-24T04:37:21;20.00;60.00
75738;DHT22;64356;45.638;13.764;2022-11-24T04:39:47;20.00;60.00
75738;DHT22;64356;45.638;13.764;2022-11-24T04:42:13;20.00;60.10
75738;DHT22;64356;45.638;13.764;2022-11-24T04:44:38;20.00;60.10
75738;DHT22;64356;45.638;13.764;2022-11-24T04:47:04;20.00;60.30
75738;DHT22;64356;45.638;13.764;2022-11-24T04:49:30;20.00;60.10
75738;DHT22;64356;45.638;13.764;2022-11-24T04:51:56;20.00;60.00
75738;DHT22;64356;45.638;13.764;2022-11-24T04:54:22;20.00;60.30
75738;DHT22;64356;45.638;13.764;2022-11-24T04:56:51;20.00;60.40
75738;DHT22;64356;45.638;13.764;2022-11-24T04:59:18;20.00;60.20
75738;DHT22;64356;45.638;13.764;2022-11-24T05:01:45;20.00;60.00
75738;DHT22;64356;45.638;13.764;2022-11-24T05:04:13;20.00;60.20
75738;DHT22;64356;45.638;13.764;2022-11-24T05:06:39;20.00;60.30
75738;DHT22;64356;45.638;13.764;2022-11-24T05:09:05;20.00;60.10
75738;DHT22;64356;45.638;13.764;2022-11-24T05:11:31;20.00;60.30
75738;DHT22;64356;45.638;13.764;2022-11-24T05:13:57;20.00;60.20
75738;DHT22;64356;45.638;13.764;2022-11-24T05:16:22;20.00;60.10
75738;DHT22;64356;45.638;13.764;2022-11-24T05:18:48;20.00;60.00
75738;DHT22;64356;45.638;13.764;2022-11-24T05:21:14;20.00;60.10
75738;DHT22;64356;45.638;13.764;2022-11-24T05:23:39;19.90;60.10
75738;DHT22;64356;45.638;13.764;2022-11-24T05:26:05;20.00;60.20
75738;DHT22;64356;45.638;13.764;2022-11-24T05:28:31;19.90;60.10
75738;DHT22;64356;45.638;13.764;2022-11-24T05:31:03;19.90;60.20
75738;DHT22;64356;45.638;13.764;2022-11-24T05:33:29;19.90;60.30
75738;DHT22;64356;45.638;13.764;2022-11-24T05:36:02;20.00;60.10
75738;DHT22;64356;45.638;13.764;2022-11-24T05:38:28;19.90;60.10
75738;DHT22;64356;45.638;13.764;2022-11-24T05:41:04;19.90;60.20
75738;DHT22;64356;45.638;13.764;2022-11-24T05:43:29;19.90;60.10
75738;DHT22;64356;45.638;13.764;2022-11-24T05:45:59;20.00;60.10
75738;DHT22;64356;45.638;13.764;2022-11-24T05:48:25;19.90;60.00
75738;DHT22;64356;45.638;13.764;2022-11-24T05:50:55;19.90;60.10
75738;DHT22;64356;45.638;13.764;2022-11-24T05:53:22;19.90;60.10
75738;DHT22;64356;45.638;13.764;2022-11-24T05:55:48;19.90;60.20
75738;DHT22;64356;45.638;13.764;2022-11-24T05:58:14;19.90;60.30
75738;DHT22;64356;45.638;13.764;2022-11-24T06:00:39;20.00;60.20
75738;DHT22;64356;45.638;13.764;2022-11-24T06:03:05;19.90;60.20
75738;DHT22;64356;45.638;13.764;2022-11-24T06:05:31;19.90;60.30
75738;DHT22;64356;45.638;13.764;2022-11-24T06:07:58;19.90;60.00
75738;DHT22;64356;45.638;13.764;2022-11-24T06:10:23;19.90;60.30
75738;DHT22;64356;45.638;13.764;2022-11-24T06:12:49;19.90;60.00
75738;DHT22;64356;45.638;13.764;2022-11-24T06:15:15;19.90;60.10
75738;DHT22;64356;45.638;13.764;2022-11-24T06:17:42;19.90;60.00
75738;DHT22;64356;45.638;13.764;2022-11-24T06:20:08;19.90;60.10
75738;DHT22;64356;45.638;13.764;2022-11-24T06:22:35;19.90;60.10
75738;DHT22;64356;45.638;13.764;2022-11-24T06:25:02;19.90;60.30
75738;DHT22;64356;45.638;13.764;2022-11-24T06:27:29;19.90;60.20
75738;DHT22;64356;45.638;13.764;2022-11-24T06:29:54;19.90;60.20
75738;DHT22;64356;45.638;13.764;2022-11-24T06:32:20;19.90;60.30
75738;DHT22;64356;45.638;13.764;2022-11-24T06:34:46;19.90;60.20
75738;DHT22;64356;45.638;13.764;2022-11-24T06:37:11;19.90;60.00
75738;DHT22;64356;45.638;13.764;2022-11-24T06:39:37;19.90;60.10
75738;DHT22;64356;45.638;13.764;2022-11-24T06:42:03;19.90;60.30
75738;DHT22;64356;45.638;13.764;2022-11-24T06:44:28;19.90;60.20
75738;DHT22;64356;45.638;13.764;2022-11-24T06:46:54;19.90;60.20
75738;DHT22;64356;45.638;13.764;2022-11-24T06:49:19;19.90;60.00
75738;DHT22;64356;45.638;13.764;2022-11-24T06:51:45;19.90;60.20
75738;DHT22;64356;45.638;13.764;2022-11-24T06:54:15;19.90;60.10
75738;DHT22;64356;45.638;13.764;2022-11-24T06:56:41;19.90;60.20
75738;DHT22;64356;45.638;13.764;2022-11-24T06:59:12;19.80;60.10
75738;DHT22;64356;45.638;13.764;2022-11-24T07:01:38;19.90;60.10
75738;DHT22;64356;45.638;13.764;2022-11-24T07:04:04;19.90;60.00
75738;DHT22;64356;45.638;13.764;2022-11-24T07:06:30;19.90;59.90
75738;DHT22;64356;45.638;13.764;2022-11-24T07:08:55;19.80;60.10
75738;DHT22;64356;45.638;13.764;2022-11-24T07:11:22;19.80;60.00
75738;DHT22;64356;45.638;13.764;2022-11-24T07:13:48;19.80;60.10
75738;DHT22;64356;45.638;13.764;2022-11-24T07:16:22;19.80;60.10
75738;DHT22;64356;45.638;13.764;2022-11-24T07:18:50;19.80;60.00
75738;DHT22;64356;45.638;13.764;2022-11-24T07:21:16;19.80;60.20
75738;DHT22;64356;45.638;13.764;2022-11-24T07:23:42;19.80;60.20
75738;DHT22;64356;45.638;13.764;2022-11-24T07:26:09;19.80;60.20
75738;DHT22;64356;45.638;13.764;2022-11-24T07:28:35;19.80;60.20
75738;DHT22;64356;45.638;13.764;2022-11-24T07:31:09;19.80;60.00
75738;DHT22;64356;45.638;13.764;2022-11-24T07:33:36;19.80;60.30
75738;DHT22;64356;45.638;13.764;2022-11-24T07:36:03;19.80;60.20
75738;DHT22;64356;45.638;13.764;2022-11-24T07:38:29;19.80;60.20
75738;DHT22;64356;45.638;13.764;2022-11-24T07:43:26;19.80;60.10
75738;DHT22;64356;45.638;13.764;2022-11-24T07:45:52;19.80;60.20
75738;DHT22;64356;45.638;13.764;2022-11-24T07:48:18;19.80;60.20
75738;DHT22;64356;45.638;13.764;2022-11-24T07:50:44;19.80;60.10
75738;DHT22;64356;45.638;13.764;2022-11-24T07:53:09;19.80;60.40
75738;DHT22;64356;45.638;13.764;2022-11-24T07:55:35;19.80;60.20
75738;DHT22;64356;45.638;13.764;2022-11-24T07:58:01;19.80;60.10
75738;DHT22;64356;45.638;13.764;2022-11-24T08:00:27;19.80;60.20
75738;DHT22;64356;45.638;13.764;2022-11-24T08:02:53;19.80;60.20
75738;DHT22;64356;45.638;13.764;2022-11-24T08:05:19;19.80;60.50
75738;DHT22;64356;45.638;13.764;2022-11-24T08:07:44;19.80;60.40
75738;DHT22;64356;45.638;13.764;2022-11-24T08:10:10;19.80;60.90
75738;DHT22;64356;45.638;13.764;2022-11-24T08:12:36;19.80;60.40
75738;DHT22;64356;45.638;13.764;2022-11-24T08:15:02;19.80;60.40
75738;DHT22;64356;45.638;13.764;2022-11-24T08:17:28;19.80;60.20
75738;DHT22;64356;45.638;13.764;2022-11-24T08:19:54;19.80;60.20
75738;DHT22;64356;45.638;13.764;2022-11-24T08:22:20;19.70;60.10
75738;DHT22;64356;45.638;13.764;2022-11-24T08:24:45;19.70;59.90
75738;DHT22;64356;45.638;13.764;2022-11-24T08:27:16;19.70;59.50
75738;DHT22;64356;45.638;13.764;2022-11-24T08:29:42;19.70;59.00
75738;DHT22;64356;45.638;13.764;2022-11-24T08:32:09;19.70;59.40
75738;DHT22;64356;45.638;13.764;2022-11-24T08:34:35;19.70;59.20
75738;DHT22;64356;45.638;13.764;2022-11-24T08:37:04;19.70;59.30
75738;DHT22;64356;45.638;13.764;2022-11-24T08:39:30;19.70;59.60
75738;DHT22;64356;45.638;13.764;2022-11-24T08:41:56;19.70;58.80
75738;DHT22;64356;45.638;13.764;2022-11-24T08:44:22;19.70;58.70
75738;DHT22;64356;45.638;13.764;2022-11-24T08:46:47;19.70;58.30
75738;DHT22;64356;45.638;13.764;2022-11-24T08:49:14;19.60;58.10
75738;DHT22;64356;45.638;13.764;2022-11-24T08:51:41;19.60;57.90
75738;DHT22;64356;45.638;13.764;2022-11-24T08:54:08;19.60;57.20
75738;DHT22;64356;45.638;13.764;2022-11-24T08:56:34;19.50;55.00
75738;DHT22;64356;45.638;13.764;2022-11-24T08:59:00;19.50;57.80
75738;DHT22;64356;45.638;13.764;2022-11-24T09:01:26;19.50;57.50
75738;DHT22;64356;45.638;13.764;2022-11-24T09:03:53;19.50;57.60
75738;DHT22;64356;45.638;13.764;2022-11-24T09:06:21;19.50;57.50
75738;DHT22;64356;45.638;13.764;2022-11-24T09:08:47;19.50;57.50
75738;DHT22;64356;45.638;13.764;2022-11-24T09:11:14;19.50;57.50
75738;DHT22;64356;45.638;13.764;2022-11-24T09:13:41;19.50;57.50
75738;DHT22;64356;45.638;13.764;2022-11-24T09:16:09;19.50;57.60
75738;DHT22;64356;45.638;13.764;2022-11-24T09:18:35;19.50;57.60
75738;DHT22;64356;45.638;13.764;2022-11-24T09:21:08;19.50;58.00
75738;DHT22;64356;45.638;13.764;2022-11-24T09:23:36;19.50;57.70
75738;DHT22;64356;45.638;13.764;2022-11-24T09:26:08;19.60;58.20
75738;DHT22;64356;45.638;13.764;2022-11-24T09:28:34;19.50;58.20
75738;DHT22;64356;45.638;13.764;2022-11-24T09:31:02;19.60;58.50
75738;DHT22;64356;45.638;13.764;2022-11-24T09:33:28;19.60;58.50
75738;DHT22;64356;45.638;13.764;2022-11-24T09:35:54;19.60;59.00
75738;DHT22;64356;45.638;13.764;2022-11-24T09:38:20;19.60;58.90
75738;DHT22;64356;45.638;13.764;2022-11-24T09:40:46;19.70;59.30
75738;DHT22;64356;45.638;13.764;2022-11-24T09:46:10;19.70;59.50
75738;DHT22;64356;45.638;13.764;2022-11-24T09:48:48;19.70;59.70
75738;DHT22;64356;45.638;13.764;2022-11-24T09:51:15;19.70;60.00
75738;DHT22;64356;45.638;13.764;2022-11-24T09:53:50;19.70;60.00
75738;DHT22;64356;45.638;13.764;2022-11-24T09:56:26;19.70;60.20
75738;DHT22;64356;45.638;13.764;2022-11-24T09:59:14;19.70;60.30
75738;DHT22;64356;45.638;13.764;2022-11-24T10:01:42;19.70;60.60
75738;DHT22;64356;45.638;13.764;2022-11-24T10:26:18;19.70;61.80
75738;DHT22;64356;45.638;13.764;2022-11-24T10:28:53;19.70;63.00
75738;DHT22;64356;45.638;13.764;2022-11-24T10:31:40;19.70;62.30
75738;DHT22;64356;45.638;13.764;2022-11-24T10:39:17;19.70;64.70
75738;DHT22;64356;45.638;13.764;2022-11-24T10:41:55;19.70;65.80
75738;DHT22;64356;45.638;13.764;2022-11-24T10:44:23;19.70;67.40
75738;DHT22;64356;45.638;13.764;2022-11-24T10:46:49;19.70;67.00
75738;DHT22;64356;45.638;13.764;2022-11-24T10:49:23;19.70;69.60
75738;DHT22;64356;45.638;13.764;2022-11-24T10:52:08;19.80;71.30
75738;DHT22;64356;45.638;13.764;2022-11-24T10:55:02;19.70;71.50
75738;DHT22;64356;45.638;13.764;2022-11-24T10:57:29;19.80;71.70
75738;DHT22;64356;45.638;13.764;2022-11-24T10:59:55;19.70;72.70
75738;DHT22;64356;45.638;13.764;2022-11-24T11:02:38;19.80;73.90
75738;DHT22;64356;45.638;13.764;2022-11-24T11:08:30;19.80;75.30
75738;DHT22;64356;45.638;13.764;2022-11-24T11:13:49;19.80;75.20
75738;DHT22;64356;45.638;13.764;2022-11-24T11:16:41;19.80;75.00
75738;DHT22;64356;45.638;13.764;2022-11-24T11:19:46;19.80;74.70
75738;DHT22;64356;45.638;13.764;2022-11-24T11:24:47;19.80;73.90
75738;DHT22;64356;45.638;13.764;2022-11-24T11:27:26;19.90;74.00
75738;DHT22;64356;45.638;13.764;2022-11-24T11:29:52;19.80;73.80
75738;DHT22;64356;45.638;13.764;2022-11-24T11:32:24;19.80;73.50
75738;DHT22;64356;45.638;13.764;2022-11-24T11:34:53;19.80;73.50
75738;DHT22;64356;45.638;13.764;2022-11-24T11:37:21;19.80;73.70
75738;DHT22;64356;45.638;13.764;2022-11-24T11:39:50;19.80;73.80
75738;DHT22;64356;45.638;13.764;2022-11-24T11:45:17;19.80;72.90
75738;DHT22;64356;45.638;13.764;2022-11-24T11:50:14;19.90;73.00
75738;DHT22;64356;45.638;13.764;2022-11-24T11:52:49;19.80;73.60
75738;DHT22;64356;45.638;13.764;2022-11-24T12:00:42;19.90;72.50
75738;DHT22;64356;45.638;13.764;2022-11-24T12:08:39;19.90;71.80
75738;DHT22;64356;45.638;13.764;2022-11-24T12:17:00;19.90;71.70
75738;DHT22;64356;45.638;13.764;2022-11-24T12:22:26;19.90;72.30
75738;DHT22;64356;45.638;13.764;2022-11-24T12:24:56;19.90;72.50
75738;DHT22;64356;45.638;13.764;2022-11-24T12:30:19;19.90;72.40
75738;DHT22;64356;45.638;13.764;2022-11-24T12:35:51;19.90;72.70
75738;DHT22;64356;45.638;13.764;2022-11-24T12:39:12;19.90;72.80
75738;DHT22;64356;45.638;13.764;2022-11-24T12:50:11;19.90;72.40
75738;DHT22;64356;45.638;13.764;2022-11-24T12:52:47;19.90;71.90
75738;DHT22;64356;45.638;13.764;2022-11-24T12:55:18;19.90;72.10
75738;DHT22;64356;45.638;13.764;2022-11-24T13:00:20;19.90;72.20
75738;DHT22;64356;45.638;13.764;2022-11-24T13:05:47;19.90;72.10
75738;DHT22;64356;45.638;13.764;2022-11-24T13:08:16;19.90;71.80
75738;DHT22;64356;45.638;13.764;2022-11-24T13:10:43;19.90;71.90
75738;DHT22;64356;45.638;13.764;2022-11-24T13:13:13;19.90;72.10
75738;DHT22;64356;45.638;13.764;2022-11-24T13:18:55;19.90;72.30
75738;DHT22;64356;45.638;13.764;2022-11-24T13:21:46;19.90;71.30
75738;DHT22;64356;45.638;13.764;2022-11-24T13:26:45;19.90;71.90
75738;DHT22;64356;45.638;13.764;2022-11-24T13:42:18;19.90;71.40
75738;DHT22;64356;45.638;13.764;2022-11-24T13:44:52;19.90;71.30
75738;DHT22;64356;45.638;13.764;2022-11-24T13:47:37;19.90;71.20
75738;DHT22;64356;45.638;13.764;2022-11-24T13:50:08;19.90;71.40
75738;DHT22;64356;45.638;13.764;2022-11-24T13:55:27;19.90;71.00
75738;DHT22;64356;45.638;13.764;2022-11-24T13:58:42;19.90;70.80
75738;DHT22;64356;45.638;13.764;2022-11-24T14:03:40;19.90;71.50
75738;DHT22;64356;45.638;13.764;2022-11-24T14:06:30;19.90;71.20
75738;DHT22;64356;45.638;13.764;2022-11-24T14:08:59;19.90;70.70
75738;DHT22;64356;45.638;13.764;2022-11-24T14:11:27;19.90;71.00
75738;DHT22;64356;45.638;13.764;2022-11-24T14:13:53;19.90;70.80
75738;DHT22;64356;45.638;13.764;2022-11-24T14:16:21;19.90;70.80
75738;DHT22;64356;45.638;13.764;2022-11-24T14:18:49;19.90;71.00
75738;DHT22;64356;45.638;13.764;2022-11-24T14:21:29;19.90;70.90
75738;DHT22;64356;45.638;13.764;2022-11-24T14:23:57;20.00;70.80
75738;DHT22;64356;45.638;13.764;2022-11-24T14:28:50;19.90;70.50
75738;DHT22;64356;45.638;13.764;2022-11-24T14:31:24;19.90;70.50
75738;DHT22;64356;45.638;13.764;2022-11-24T14:34:15;20.00;70.10
75738;DHT22;64356;45.638;13.764;2022-11-24T14:36:42;19.90;70.30
75738;DHT22;64356;45.638;13.764;2022-11-24T14:39:13;20.00;70.30
75738;DHT22;64356;45.638;13.764;2022-11-24T14:41:40;20.00;70.20
75738;DHT22;64356;45.638;13.764;2022-11-24T14:44:11;20.00;69.90
75738;DHT22;64356;45.638;13.764;2022-11-24T14:46:39;20.00;70.10
75738;DHT22;64356;45.638;13.764;2022-11-24T14:49:05;19.90;70.00
75738;DHT22;64356;45.638;13.764;2022-11-24T14:51:33;20.00;69.80
75738;DHT22;64356;45.638;13.764;2022-11-24T14:54:02;20.00;70.00
75738;DHT22;64356;45.638;13.764;2022-11-24T14:56:35;20.00;69.50
75738;DHT22;64356;45.638;13.764;2022-11-24T14:59:03;20.00;69.60
75738;DHT22;64356;45.638;13.764;2022-11-24T15:01:33;20.00;69.60
75738;DHT22;64356;45.638;13.764;2022-11-24T15:04:20;20.00;69.30
75738;DHT22;64356;45.638;13.764;2022-11-24T15:06:47;20.00;69.20
75738;DHT22;64356;45.638;13.764;2022-11-24T15:09:38;20.00;69.10
75738;DHT22;64356;45.638;13.764;2022-11-24T15:17:28;20.00;69.10
75738;DHT22;64356;45.638;13.764;2022-11-24T15:20:07;20.00;68.80
75738;DHT22;64356;45.638;13.764;2022-11-24T15:22:40;20.00;69.90
75738;DHT22;64356;45.638;13.764;2022-11-24T15:25:38;20.00;68.60
75738;DHT22;64356;45.638;13.764;2022-11-24T15:28:04;20.00;68.90
75738;DHT22;64356;45.638;13.764;2022-11-24T15:30:30;20.00;68.60
75738;DHT22;64356;45.638;13.764;2022-11-24T15:32:58;20.00;68.80
75738;DHT22;64356;45.638;13.764;2022-11-24T15:35:27;20.00;68.20
75738;DHT22;64356;45.638;13.764;2022-11-24T15:37:53;20.00;68.60
75738;DHT22;64356;45.638;13.764;2022-11-24T15:40:19;20.00;68.70
75738;DHT22;64356;45.638;13.764;2022-11-24T15:42:52;20.00;68.80
75738;DHT22;64356;45.638;13.764;2022-11-24T15:45:19;20.00;68.70
75738;DHT22;64356;45.638;13.764;2022-11-24T15:47:45;20.00;68.60
75738;DHT22;64356;45.638;13.764;2022-11-24T15:50:11;20.00;68.40
75738;DHT22;64356;45.638;13.764;2022-11-24T15:52:37;20.00;68.70
75738;DHT22;64356;45.638;13.764;2022-11-24T15:55:03;20.00;68.60
75738;DHT22;64356;45.638;13.764;2022-11-24T15:57:31;20.00;68.60
75738;DHT22;64356;45.638;13.764;2022-11-24T15:59:58;20.00;68.10
75738;DHT22;64356;45.638;13.764;2022-11-24T16:02:24;20.00;68.60
75738;DHT22;64356;45.638;13.764;2022-11-24T16:04:50;20.00;68.60
75738;DHT22;64356;45.638;13.764;2022-11-24T16:07:16;20.00;68.10
75738;DHT22;64356;45.638;13.764;2022-11-24T16:09:42;20.00;68.40
75738;DHT22;64356;45.638;13.764;2022-11-24T16:12:07;20.00;68.50
75738;DHT22;64356;45.638;13.764;2022-11-24T16:14:34;20.00;69.00
75738;DHT22;64356;45.638;13.764;2022-11-24T16:17:00;20.00;68.00
75738;DHT22;64356;45.638;13.764;2022-11-24T16:19:25;20.00;68.10
75738;DHT22;64356;45.638;13.764;2022-11-24T16:21:51;20.00;68.10
75738;DHT22;64356;45.638;13.764;2022-11-24T16:24:17;20.00;68.40
75738;DHT22;64356;45.638;13.764;2022-11-24T16:26:42;20.00;68.30
75738;DHT22;64356;45.638;13.764;2022-11-24T16:29:08;20.00;68.00
75738;DHT22;64356;45.638;13.764;2022-11-24T16:31:34;20.00;68.30
75738;DHT22;64356;45.638;13.764;2022-11-24T16:33:59;20.10;68.50
75738;DHT22;64356;45.638;13.764;2022-11-24T16:36:25;20.00;68.40
75738;DHT22;64356;45.638;13.764;2022-11-24T16:38:52;20.00;68.30
75738;DHT22;64356;45.638;13.764;2022-11-24T16:41:18;20.00;68.30
75738;DHT22;64356;45.638;13.764;2022-11-24T16:43:46;20.00;68.10
75738;DHT22;64356;45.638;13.764;2022-11-24T16:46:19;20.00;68.30
75738;DHT22;64356;45.638;13.764;2022-11-24T16:48:47;20.00;68.30
75738;DHT22;64356;45.638;13.764;2022-11-24T16:51:13;20.00;68.20
75738;DHT22;64356;45.638;13.764;2022-11-24T16:53:40;20.00;68.40
75738;DHT22;64356;45.638;13.764;2022-11-24T16:56:06;20.00;68.20
75738;DHT22;64356;45.638;13.764;2022-11-24T16:58:32;20.00;67.90
75738;DHT22;64356;45.638;13.764;2022-11-24T17:01:03;20.00;68.20
75738;DHT22;64356;45.638;13.764;2022-11-24T17:03:32;20.00;68.50
75738;DHT22;64356;45.638;13.764;2022-11-24T17:06:01;20.00;68.10
75738;DHT22;64356;45.638;13.764;2022-11-24T17:08:32;20.00;68.30
75738;DHT22;64356;45.638;13.764;2022-11-24T17:11:14;20.00;68.50
75738;DHT22;64356;45.638;13.764;2022-11-24T17:13:41;20.00;68.50
75738;DHT22;64356;45.638;13.764;2022-11-24T17:16:09;20.00;68.40
75738;DHT22;64356;45.638;13.764;2022-11-24T17:18:36;20.00;68.40
75738;DHT22;64356;45.638;13.764;2022-11-24T17:21:04;20.00;68.50
75738;DHT22;64356;45.638;13.764;2022-11-24T17:23:30;20.00;68.10
75738;DHT22;64356;45.638;13.764;2022-11-24T17:26:04;20.00;68.50
75738;DHT22;64356;45.638;13.764;2022-11-24T17:28:29;20.00;67.90